Time;durP1;ratioP1;P1;durP2;ratioP2;P2;SDS_P1;SDS_P2;PMS_P1;PMS_P2;Temp;Humidity;BMP_temperature;BMP_pressure;BME280_temperature;BME280_humidity;BME280_pressure;Samples;Min_cycle;Max_cycle;Signal;HPM_P1;HPM_P2
2023/01/09 00:00:10;;;;;;;33.83;20.20;;;3.60;99.90;;;3.21;83.14;99404.56;5136078;28;20204;-70
2023/01/09 00:02:39;;;;;;;34.73;20.27;;;3.50;99.90;;;3.21;84.00;99396.94;5120201;28;20187;-68
2023/01/09 00:05:11;;;;;;;38.93;21.57;;;3.60;99.90;;;3.22;84.19;99396.94;5136609;28;20267;-70
2023/01/09 00:07:39;;;;;;;33.67;19.70;;;3.60;99.90;;;3.22;83.20;99407.13;5137473;28;20194;-68
2023/01/09 00:10:11;;;;;;;32.20;19.93;;;3.60;99.90;;;3.22;83.36;99408.81;5136528;28;20217;-69
2023/01/09 00:12:39;;;;;;;38.57;20.70;;;3.50;99.90;;;3.21;84.16;99395.25;5135341;28;20230;-69
2023/01/09 00:15:12;;;;;;;32.80;20.87;;;3.50;99.90;;;3.22;83.30;99398.63;5134092;27;20199;-68
2023/01/09 00:17:41;;;;;;;35.73;20.83;;;3.50;99.90;;;3.20;84.05;99383.31;5134667;28;20194;-69
2023/01/09 00:20:11;;;;;;;36.43;20.83;;;3.50;99.90;;;3.23;83.92;99393.53;5137298;28;20232;-69
2023/01/09 00:22:39;;;;;;;34.03;20.30;;;3.60;99.90;;;3.25;84.15;99394.41;5136064;28;20180;-68
2023/01/09 00:25:10;;;;;;;36.90;20.57;;;3.60;99.90;;;3.24;83.85;99382.53;5135936;28;20221;-70
2023/01/09 00:27:38;;;;;;;40.17;20.70;;;3.60;99.90;;;3.26;84.34;99383.38;5134605;28;20233;-69
2023/01/09 00:30:09;;;;;;;34.87;20.00;;;3.60;99.90;;;3.29;83.91;99400.38;5135766;28;20203;-70
2023/01/09 00:32:37;;;;;;;36.57;21.73;;;3.60;99.90;;;3.30;83.87;99409.72;5135479;28;20242;-69
2023/01/09 00:35:07;;;;;;;34.03;20.27;;;3.60;99.90;;;3.31;83.91;99412.25;5136029;28;20213;-68
2023/01/09 00:37:35;;;;;;;35.43;19.97;;;3.60;99.90;;;3.34;83.57;99412.28;5130267;28;20215;-70
2023/01/09 00:40:04;;;;;;;32.30;18.97;;;3.60;99.90;;;3.36;83.80;99418.25;5134209;28;20229;-70
2023/01/09 00:42:36;;;;;;;36.50;20.80;;;3.70;99.90;;;3.35;82.96;99408.94;5134284;28;20180;-70
2023/01/09 00:45:11;;;;;;;33.33;20.43;;;3.70;99.90;;;3.33;83.03;99400.41;5134790;28;20192;-69
2023/01/09 00:47:45;;;;;;;35.30;20.27;;;3.60;99.90;;;3.35;83.89;99402.94;5135108;28;20192;-69
2023/01/09 00:50:18;;;;;;;32.97;20.47;;;3.70;99.90;;;3.36;82.95;99402.97;5133480;28;20188;-68
2023/01/09 00:52:48;;;;;;;32.37;19.30;;;3.60;99.90;;;3.38;83.36;99420.81;5133294;27;20277;-70
2023/01/09 00:55:17;;;;;;;34.40;19.27;;;3.60;99.90;;;3.35;83.05;99408.94;5134296;28;20184;-71
2023/01/09 00:57:47;;;;;;;33.70;19.60;;;3.60;99.90;;;3.36;83.23;99402.13;5118733;28;20202;-70
2023/01/09 01:00:17;;;;;;;29.17;19.03;;;3.60;99.90;;;3.35;83.41;99393.66;5134490;28;20952;-71
2023/01/09 01:02:46;;;;;;;29.93;17.50;;;3.60;99.90;;;3.34;83.65;99394.47;5135410;28;20180;-69
2023/01/09 01:08:00;;;;;;;31.27;18.93;;;3.60;99.90;;;3.33;83.83;99369.00;5128922;28;20172;-69
2023/01/09 01:10:29;;;;;;;32.77;19.63;;;3.60;99.90;;;3.34;82.99;99358.81;5132327;28;20192;-69
2023/01/09 01:12:59;;;;;;;38.40;20.50;;;3.70;99.90;;;3.36;83.61;99351.22;5129910;28;20220;-69
2023/01/09 01:15:28;;;;;;;35.00;20.13;;;3.60;99.90;;;3.33;82.71;99331.66;5134413;28;20216;-68
2023/01/09 01:17:57;;;;;;;33.00;20.03;;;3.60;99.90;;;3.31;83.08;99343.53;5134890;28;20442;-70
2023/01/09 01:20:25;;;;;;;33.13;19.17;;;3.60;99.90;;;3.30;83.07;99356.25;5135677;28;20215;-70
2023/01/09 01:22:53;;;;;;;33.93;20.33;;;3.60;99.90;;;3.29;83.24;99357.94;5135465;28;20219;-69
2023/01/09 01:25:22;;;;;;;32.27;20.63;;;3.60;99.90;;;3.28;83.64;99347.78;5134868;28;20204;-69
2023/01/09 01:27:51;;;;;;;30.93;19.90;;;3.60;99.90;;;3.26;83.50;99332.47;5133875;28;20234;-69
2023/01/09 01:30:20;;;;;;;34.20;20.80;;;3.60;99.90;;;3.25;83.53;99358.78;5133955;28;20196;-68
2023/01/09 01:32:49;;;;;;;32.67;19.40;;;3.60;99.90;;;3.27;83.90;99344.34;5133677;28;20256;-68
2023/01/09 01:35:18;;;;;;;30.83;18.90;;;3.50;99.90;;;3.27;83.99;99339.25;5134541;28;20210;-69
2023/01/09 01:37:48;;;;;;;32.90;18.90;;;3.60;99.90;;;3.28;83.71;99332.50;5134976;28;20212;-69
2023/01/09 01:40:18;;;;;;;33.80;20.03;;;3.60;99.90;;;3.29;84.03;99319.75;5134803;28;20229;-69
2023/01/09 01:42:48;;;;;;;30.57;19.00;;;3.60;99.90;;;3.27;83.94;99326.53;5134617;28;20255;-69
2023/01/09 01:45:18;;;;;;;35.93;19.23;;;3.60;99.90;;;3.31;83.59;99338.44;5123196;28;20221;-69
2023/01/09 01:47:59;;;;;;;34.20;20.77;;;3.60;99.90;;;3.35;83.83;99339.28;5135300;28;20180;-69
2023/01/09 01:50:35;;;;;;;32.97;20.03;;;3.60;99.90;;;3.36;83.03;99344.41;5122383;28;20187;-69
2023/01/09 01:53:09;;;;;;;31.13;18.80;;;3.60;99.90;;;3.37;83.98;99335.94;5134230;28;20211;-70
2023/01/09 01:55:43;;;;;;;35.70;21.17;;;3.80;99.90;;;3.35;83.16;99334.22;5133635;28;20239;-68
2023/01/09 01:58:15;;;;;;;30.67;18.83;;;3.60;99.90;;;3.36;83.78;99362.25;5133758;28;20219;-68
2023/01/09 02:00:47;;;;;;;30.53;20.20;;;3.70;99.90;;;3.38;83.10;99352.06;5134675;28;20215;-69
2023/01/09 02:03:21;;;;;;;32.27;19.27;;;3.60;99.90;;;3.41;84.12;99333.41;5134042;28;20221;-70
2023/01/09 02:05:50;;;;;;;31.17;19.73;;;3.70;99.90;;;3.43;83.38;99344.47;5134203;28;20184;-69
2023/01/09 02:08:20;;;;;;;35.77;19.97;;;3.70;99.90;;;3.47;83.45;99356.38;5135049;28;20275;-71
2023/01/09 02:10:50;;;;;;;31.50;19.80;;;3.70;99.90;;;3.49;83.36;99347.03;5133796;28;20191;-70
2023/01/09 02:13:19;;;;;;;31.80;19.53;;;3.70;99.90;;;3.50;82.76;99357.25;5134761;28;20268;-71
2023/01/09 02:16:05;;;;;;;34.00;21.23;;;3.70;99.90;;;3.50;83.09;99346.19;5115204;28;20200;-71
2023/01/09 02:18:50;;;;;;;31.43;20.30;;;3.80;99.90;;;3.52;83.22;99336.88;5134217;28;20271;-71
2023/01/09 02:21:32;;;;;;;32.63;20.17;;;3.80;99.90;;;3.54;83.21;99341.13;5136929;28;20247;-69
2023/01/09 02:24:55;;;;;;;34.43;20.97;;;3.80;99.90;;;3.56;83.08;99338.56;5138328;28;20199;-69
2023/01/09 02:28:14;;;;;;;32.40;19.30;;;3.80;99.90;;;3.59;83.19;99323.31;5136541;28;20196;-68
2023/01/09 02:30:49;;;;;;;31.97;20.10;;;3.80;99.90;;;3.58;83.16;99325.03;5138444;28;20184;-69
2023/01/09 02:33:42;;;;;;;29.87;20.00;;;3.80;99.90;;;3.58;83.36;99324.16;5137951;28;20257;-70
2023/01/09 02:36:24;;;;;;;31.93;19.90;;;3.80;99.90;;;3.59;83.21;99328.41;5137931;28;20184;-69
2023/01/09 02:39:07;;;;;;;30.67;19.87;;;3.80;99.90;;;3.60;83.08;99322.47;5139564;28;20175;-70
2023/01/09 02:41:45;;;;;;;35.03;21.00;;;3.80;99.90;;;3.65;83.14;99323.34;5137777;28;20184;-69
2023/01/09 02:44:22;;;;;;;34.07;20.93;;;3.90;99.90;;;3.68;83.14;99313.16;5138075;27;20196;-69
2023/01/09 02:47:04;;;;;;;30.03;20.07;;;3.90;99.90;;;3.71;82.70;99317.41;5138583;28;20203;-70
2023/01/09 02:49:34;;;;;;;32.43;20.27;;;3.90;99.90;;;3.73;83.23;99314.03;5138326;28;20191;-69
2023/01/09 02:52:21;;;;;;;31.23;20.90;;;3.90;99.90;;;3.74;82.66;99314.88;5132584;28;20212;-69
2023/01/09 02:55:00;;;;;;;35.10;20.77;;;3.90;99.90;;;3.78;82.98;99330.19;5133163;28;20184;-69
2023/01/09 02:57:44;;;;;;;33.10;19.53;;;4.00;99.90;;;3.80;82.55;99325.97;5133875;28;20191;-69
2023/01/09 03:00:30;;;;;;;27.60;19.30;;;4.00;99.90;;;3.82;82.68;99321.72;5134863;28;20252;-70
2023/01/09 03:03:10;;;;;;;31.00;19.63;;;4.00;99.90;;;3.80;82.51;99313.22;5138015;28;20192;-68
2023/01/09 03:05:44;;;;;;;28.87;19.03;;;4.00;99.90;;;3.78;82.44;99309.81;5137690;28;20195;-69
2023/01/09 03:08:18;;;;;;;30.93;19.20;;;4.00;99.90;;;3.75;82.61;99309.78;5136235;28;20191;-69
2023/01/09 03:10:52;;;;;;;31.83;20.30;;;4.00;99.90;;;3.74;82.35;99303.00;5137841;27;20471;-70
2023/01/09 03:13:25;;;;;;;32.20;19.20;;;4.00;99.90;;;3.74;82.53;99297.91;5138253;28;20250;-71
2023/01/09 03:15:55;;;;;;;27.73;19.33;;;4.00;99.90;;;3.76;82.53;99286.03;5132039;28;20184;-69
2023/01/09 03:18:28;;;;;;;30.57;19.03;;;4.00;99.90;;;3.78;82.30;99293.66;5138112;28;20192;-69
2023/01/09 03:20:57;;;;;;;30.77;18.20;;;4.00;99.90;;;3.77;82.72;99305.56;5137350;28;20218;-69
2023/01/09 03:23:26;;;;;;;26.83;18.53;;;4.00;99.90;;;3.78;82.63;99294.53;5137633;28;20204;-69
2023/01/09 03:25:54;;;;;;;28.60;18.73;;;4.00;99.90;;;3.77;82.56;99287.72;5137832;28;20221;-69
2023/01/09 03:28:28;;;;;;;28.77;18.37;;;4.10;99.90;;;3.78;81.77;99284.31;5135652;28;20215;-69
2023/01/09 03:30:57;;;;;;;26.27;18.73;;;4.00;99.90;;;3.79;82.04;99280.97;5136721;28;20208;-69
2023/01/09 03:33:27;;;;;;;29.83;18.87;;;4.10;99.90;;;3.81;82.31;99280.94;5137091;28;20241;-69
2023/01/09 03:35:56;;;;;;;28.40;17.90;;;4.10;99.90;;;3.82;82.43;99275.84;5132369;28;20192;-70
2023/01/09 03:38:24;;;;;;;31.10;17.03;;;4.10;99.90;;;3.81;81.81;99269.06;5137158;28;20200;-69
2023/01/09 03:40:52;;;;;;;28.37;17.20;;;4.10;99.90;;;3.82;82.05;99260.56;5135327;28;20259;-69
2023/01/09 03:43:21;;;;;;;29.40;17.67;;;4.10;99.90;;;3.83;82.06;99264.81;5137853;27;20205;-70
2023/01/09 03:45:49;;;;;;;27.37;17.47;;;4.10;99.90;;;3.83;82.04;99257.19;5136662;28;20248;-69
2023/01/09 03:48:18;;;;;;;25.40;17.87;;;4.10;99.90;;;3.82;82.00;99249.50;5136970;28;20195;-69
2023/01/09 03:50:48;;;;;;;24.30;17.20;;;4.10;99.90;;;3.85;82.01;99249.53;5136365;28;20188;-69
2023/01/09 03:53:18;;;;;;;27.03;17.90;;;4.10;99.90;;;3.84;81.87;99235.94;5137097;28;20191;-71
2023/01/09 03:55:47;;;;;;;26.50;17.23;;;4.10;99.90;;;3.85;81.21;99236.78;5137647;28;20225;-69
2023/01/09 03:58:16;;;;;;;27.87;17.83;;;4.10;99.90;;;3.85;81.37;99230.00;5136656;28;20203;-70
2023/01/09 04:00:47;;;;;;;26.20;17.03;;;4.10;99.90;;;3.84;81.70;99232.56;5136791;28;20237;-69
2023/01/09 04:03:19;;;;;;;26.77;16.97;;;4.10;99.90;;;3.79;81.67;99224.91;5137525;28;20255;-70
2023/01/09 04:05:49;;;;;;;24.07;16.87;;;4.10;99.90;;;3.81;81.50;99238.47;5136649;28;20354;-70
2023/01/09 04:08:18;;;;;;;26.13;17.20;;;4.10;99.90;;;3.79;82.24;99222.34;5136171;28;20215;-71
2023/01/09 04:10:48;;;;;;;25.40;16.90;;;4.10;99.90;;;3.78;81.75;99225.72;5133144;28;20188;-70
2023/01/09 04:13:16;;;;;;;24.97;16.90;;;4.10;99.90;;;3.79;81.83;99235.09;5137715;28;20219;-69
2023/01/09 04:15:45;;;;;;;26.33;16.47;;;4.10;99.90;;;3.76;81.66;99227.44;5134734;27;20522;-69
2023/01/09 04:18:13;;;;;;;23.77;16.30;;;4.00;99.90;;;3.73;81.98;99232.53;5136439;28;20271;-70
2023/01/09 04:20:42;;;;;;;25.80;17.70;;;4.00;99.90;;;3.73;82.59;99235.06;5136087;28;20234;-69
2023/01/09 04:23:12;;;;;;;25.03;17.37;;;4.00;99.90;;;3.73;82.60;99229.97;5136929;28;20284;-69
2023/01/09 04:25:40;;;;;;;28.17;17.37;;;4.00;99.90;;;3.77;81.99;99234.22;5136649;28;20188;-70
2023/01/09 04:28:08;;;;;;;27.57;17.83;;;4.00;99.90;;;3.77;82.56;99231.69;5135874;28;20188;-69
2023/01/09 04:30:37;;;;;;;27.50;17.43;;;4.10;99.90;;;3.79;82.33;99244.41;5134909;28;20562;-69
2023/01/09 04:33:05;;;;;;;24.83;16.83;;;4.10;99.90;;;3.79;82.59;99230.00;5135938;28;20216;-70
2023/01/09 04:35:34;;;;;;;25.87;17.47;;;4.10;99.90;;;3.81;82.75;99222.34;5135374;28;20188;-69
2023/01/09 04:38:02;;;;;;;25.63;17.20;;;4.10;99.90;;;3.84;82.75;99227.44;5135616;28;20196;-70
2023/01/09 04:40:32;;;;;;;26.00;17.63;;;4.10;99.90;;;3.82;82.08;99214.69;5136670;28;20196;-68
2023/01/09 04:43:00;;;;;;;26.73;17.20;;;4.10;99.90;;;3.83;82.10;99223.22;5136454;28;20214;-68
2023/01/09 04:45:29;;;;;;;25.60;17.23;;;4.10;99.90;;;3.84;81.83;99212.16;5135854;28;20210;-69
2023/01/09 04:47:57;;;;;;;26.97;17.40;;;4.10;99.90;;;3.85;82.22;99235.09;5134415;28;20199;-69
2023/01/09 04:50:26;;;;;;;27.43;17.43;;;4.20;99.90;;;3.86;82.09;99215.56;5136437;28;20211;-69
2023/01/09 04:52:55;;;;;;;23.13;16.60;;;4.20;99.90;;;3.86;82.42;99224.03;5135834;28;20210;-69
2023/01/09 04:55:24;;;;;;;25.27;17.03;;;4.20;99.90;;;3.87;82.64;99207.94;5136381;28;20313;-69
2023/01/09 04:57:53;;;;;;;25.67;17.07;;;4.20;99.90;;;3.88;82.37;99214.72;5136276;28;20228;-70
2023/01/09 05:00:22;;;;;;;26.37;16.90;;;4.20;99.90;;;3.90;82.88;99203.66;5134409;28;20211;-70
2023/01/09 05:02:51;;;;;;;27.07;17.57;;;4.20;99.90;;;3.90;82.72;99218.97;5136030;28;20218;-70
2023/01/09 05:05:19;;;;;;;24.50;16.37;;;4.20;99.90;;;3.90;82.13;99211.31;5134342;28;20188;-69
2023/01/09 05:07:48;;;;;;;22.53;16.30;;;4.20;99.90;;;3.88;82.47;99201.97;5135155;28;20249;-70
2023/01/09 05:10:16;;;;;;;26.67;17.37;;;4.20;99.90;;;3.92;83.07;99201.97;5136039;28;20188;-70
2023/01/09 05:12:45;;;;;;;23.40;15.80;;;4.20;99.90;;;3.93;82.19;99194.31;5131175;28;20188;-69
2023/01/09 05:15:14;;;;;;;29.70;18.07;;;4.30;99.90;;;3.93;83.02;99196.03;5133105;28;20208;-69
2023/01/09 05:17:43;;;;;;;25.73;17.80;;;4.20;99.90;;;3.94;82.93;99192.63;5135993;28;20196;-69
2023/01/09 05:20:11;;;;;;;24.57;16.00;;;4.20;99.90;;;3.95;83.08;99195.19;5135715;28;20248;-69
2023/01/09 05:22:40;;;;;;;21.50;15.30;;;4.30;99.90;;;3.96;82.86;99194.34;5134281;28;20196;-68
2023/01/09 05:25:09;;;;;;;25.57;17.00;;;4.30;99.90;;;3.96;82.51;99188.41;5134991;28;20216;-69
2023/01/09 05:27:37;;;;;;;22.30;15.67;;;4.30;99.90;;;3.98;82.44;99190.09;5130666;28;20203;-70
2023/01/09 05:30:08;;;;;;;25.13;15.63;;;4.30;99.90;;;4.02;83.07;99180.75;5134994;28;20200;-69
2023/01/09 05:32:38;;;;;;;24.43;16.47;;;4.30;99.90;;;4.04;83.43;99179.91;5130765;28;20221;-69
2023/01/09 05:35:08;;;;;;;24.67;16.00;;;4.40;99.90;;;4.08;82.93;99186.69;5131916;28;20245;-68
2023/01/09 05:37:36;;;;;;;22.23;16.20;;;4.40;99.90;;;4.11;82.53;99175.66;5132795;28;20226;-70
2023/01/09 05:40:06;;;;;;;27.07;16.20;;;4.40;99.90;;;4.11;82.53;99170.56;5129931;28;20208;-70
2023/01/09 05:42:34;;;;;;;23.00;15.93;;;4.40;99.90;;;4.09;82.73;99177.38;5129563;28;20206;-69
2023/01/09 05:45:03;;;;;;;22.60;14.83;;;4.40;99.90;;;4.10;82.86;99163.78;5133928;28;20207;-70
2023/01/09 05:47:31;;;;;;;23.67;14.97;;;4.40;99.90;;;4.10;82.63;99169.72;5133890;28;20241;-70
2023/01/09 05:50:01;;;;;;;22.57;15.43;;;4.40;99.90;;;4.09;82.88;99152.72;5134358;28;20184;-70
2023/01/09 05:52:29;;;;;;;22.07;15.23;;;4.40;99.90;;;4.11;82.27;99150.16;5134486;28;20192;-70
2023/01/09 05:54:58;;;;;;;21.60;14.50;;;4.40;99.90;;;4.12;82.84;99167.16;5124097;28;20235;-72
2023/01/09 05:57:27;;;;;;;19.53;14.97;;;4.40;99.90;;;4.13;83.07;99153.59;5100803;28;20214;-73
2023/01/09 05:59:56;;;;;;;23.00;14.93;;;4.40;99.90;;;4.12;82.99;99151.84;5116603;28;20223;-73
2023/01/09 06:02:24;;;;;;;21.27;15.07;;;4.40;99.90;;;4.13;82.39;99173.97;5118669;28;20538;-72
2023/01/09 06:04:53;;;;;;;22.20;14.83;;;4.50;99.90;;;4.13;83.01;99162.94;5133010;28;20183;-68
2023/01/09 06:07:23;;;;;;;21.70;14.83;;;4.50;99.90;;;4.14;82.43;99164.63;5134477;28;20199;-71
2023/01/09 06:09:51;;;;;;;21.43;15.27;;;4.40;99.90;;;4.12;83.14;99162.06;5129168;28;20233;-73
2023/01/09 06:12:20;;;;;;;23.07;15.77;;;4.50;99.90;;;4.14;83.04;99156.97;5132265;28;20263;-70
2023/01/09 06:14:48;;;;;;;20.33;15.00;;;4.50;99.90;;;4.17;83.10;99149.34;5134436;28;20257;-72
2023/01/09 06:17:17;;;;;;;22.10;14.53;;;4.50;99.90;;;4.16;83.21;99140.84;5127385;28;20212;-73
2023/01/09 06:19:45;;;;;;;24.53;16.00;;;4.50;99.90;;;4.14;82.80;99150.16;5122960;28;20196;-71
2023/01/09 06:22:14;;;;;;;19.00;14.33;;;4.40;99.90;;;4.11;82.80;99147.63;5127626;27;20196;-71
2023/01/09 06:24:43;;;;;;;23.03;14.77;;;4.40;99.90;;;4.10;82.44;99153.56;5118403;28;20196;-71
2023/01/09 06:27:12;;;;;;;22.30;15.43;;;4.40;99.90;;;4.07;83.13;99148.47;5111739;28;20612;-68
2023/01/09 06:29:41;;;;;;;20.63;14.23;;;4.40;99.90;;;4.08;82.71;99155.25;5111812;28;20204;-71
2023/01/09 06:32:09;;;;;;;22.63;14.47;;;4.40;99.90;;;4.07;83.15;99156.13;5113645;27;20203;-69
2023/01/09 06:34:38;;;;;;;20.90;14.53;;;4.40;99.90;;;4.05;83.34;99157.81;5126487;27;20313;-71
2023/01/09 06:37:06;;;;;;;22.00;15.03;;;4.40;99.90;;;4.06;82.80;99173.13;5121403;28;20214;-70
2023/01/09 06:39:35;;;;;;;19.83;13.63;;;4.30;99.90;;;4.06;83.48;99162.06;5116284;28;20205;-73
2023/01/09 06:42:05;;;;;;;20.83;14.70;;;4.40;99.90;;;4.05;83.15;99153.59;5125469;28;20284;-70
2023/01/09 06:44:35;;;;;;;20.27;14.67;;;4.40;99.90;;;4.08;83.53;99148.47;5129239;27;20185;-72
2023/01/09 06:47:04;;;;;;;21.80;14.57;;;4.40;99.90;;;4.11;83.49;99155.25;5127710;28;20204;-71
2023/01/09 06:49:32;;;;;;;21.70;13.80;;;4.40;99.90;;;4.12;82.91;99151.84;5119962;28;20207;-71
2023/01/09 06:52:04;;;;;;;21.53;13.53;;;4.40;99.90;;;4.13;83.06;99143.38;5130223;28;20180;-73
2023/01/09 06:54:33;;;;;;;20.87;14.40;;;4.40;99.90;;;4.11;82.55;99140.81;5126068;28;20216;-72
2023/01/09 06:57:03;;;;;;;22.33;16.23;;;4.40;99.90;;;4.11;83.04;99145.91;5127953;27;20226;-69
2023/01/09 06:59:32;;;;;;;19.70;13.83;;;4.40;99.90;;;4.14;83.19;99145.06;5128945;28;20196;-69
2023/01/09 07:02:00;;;;;;;22.03;14.70;;;4.40;99.90;;;4.14;83.30;99129.78;5129706;27;20225;-68
2023/01/09 07:04:29;;;;;;;21.27;14.13;;;4.50;99.90;;;4.14;83.26;99136.56;5133204;28;20184;-68
2023/01/09 07:06:58;;;;;;;18.33;13.43;;;4.40;99.90;;;4.13;83.10;99138.28;5128225;28;20219;-70
2023/01/09 07:09:26;;;;;;;20.03;13.97;;;4.50;99.90;;;4.15;82.79;99131.47;5136129;28;20245;-69
2023/01/09 07:11:54;;;;;;;21.73;14.57;;;4.50;99.90;;;4.17;82.97;99129.78;5138529;28;20196;-68
2023/01/09 07:14:24;;;;;;;22.00;14.70;;;4.50;99.90;;;4.18;82.42;99125.53;5138621;28;20192;-69
2023/01/09 07:16:52;;;;;;;20.03;13.87;;;4.50;99.90;;;4.19;82.42;99117.03;5137574;28;20184;-69
2023/01/09 07:19:21;;;;;;;21.70;13.63;;;4.50;99.90;;;4.19;82.79;99142.50;5138158;28;20425;-69
2023/01/09 07:21:49;;;;;;;21.13;14.43;;;4.50;99.90;;;4.20;82.96;99132.34;5138482;28;20220;-68
2023/01/09 07:24:18;;;;;;;20.50;13.63;;;4.50;99.90;;;4.21;82.45;99136.56;5138332;28;20229;-68
2023/01/09 07:26:46;;;;;;;18.47;13.83;;;4.50;99.90;;;4.23;82.62;99144.22;5137422;28;20222;-69
2023/01/09 07:29:14;;;;;;;19.17;13.90;;;4.50;99.90;;;4.22;81.96;99138.25;5137620;28;20211;-68
2023/01/09 07:31:46;;;;;;;20.30;13.00;;;4.50;99.90;;;4.24;82.49;99136.56;5137246;28;20200;-68
2023/01/09 07:34:15;;;;;;;21.83;14.83;;;4.60;99.90;;;4.27;82.74;99126.38;5135692;28;20184;-68
2023/01/09 07:36:45;;;;;;;19.27;14.03;;;4.60;99.90;;;4.30;82.44;99130.59;5137737;28;20232;-69
2023/01/09 07:39:13;;;;;;;17.40;13.30;;;4.60;99.90;;;4.31;81.48;99135.72;5133742;28;20172;-67
2023/01/09 07:41:42;;;;;;;21.53;14.23;;;4.60;99.90;;;4.32;81.81;99128.91;5134774;28;20213;-69
2023/01/09 07:44:10;;;;;;;19.80;13.10;;;4.60;99.90;;;4.33;81.74;99133.16;5134606;28;20229;-68
2023/01/09 07:46:39;;;;;;;22.90;13.70;;;4.60;99.90;;;4.34;82.21;99133.19;5137323;28;20242;-67
2023/01/09 07:49:09;;;;;;;20.87;14.80;;;4.70;99.90;;;4.37;81.37;99127.19;5135472;28;20212;-68
2023/01/09 07:51:41;;;;;;;22.63;13.37;;;4.70;99.90;;;4.39;81.73;99119.56;5134642;28;20203;-69
2023/01/09 07:54:11;;;;;;;22.40;14.73;;;4.70;99.90;;;4.42;81.46;99127.19;5137721;28;20184;-68
2023/01/09 07:56:40;;;;;;;20.40;13.80;;;4.70;99.90;;;4.43;81.67;99108.50;5137701;28;20231;-69
2023/01/09 07:59:08;;;;;;;18.57;13.27;;;4.70;99.90;;;4.43;81.52;99111.91;5138122;28;20199;-68
2023/01/09 08:01:37;;;;;;;16.40;12.50;;;4.70;99.90;;;4.40;80.86;99100.84;5135605;28;20212;-68
2023/01/09 08:04:05;;;;;;;20.83;13.40;;;4.70;99.90;;;4.41;81.49;99117.84;5136996;28;20259;-68
2023/01/09 08:06:35;;;;;;;19.80;13.43;;;4.70;99.90;;;4.40;81.33;99103.41;5137243;28;20207;-68
2023/01/09 08:09:04;;;;;;;19.50;13.17;;;4.70;99.90;;;4.40;81.50;99100.84;5136216;28;20187;-68
2023/01/09 08:11:33;;;;;;;21.53;14.37;;;4.70;99.90;;;4.39;81.36;99104.25;5135107;28;20249;-67
2023/01/09 08:14:01;;;;;;;23.20;13.83;;;4.70;99.90;;;4.40;81.43;99108.50;5135348;28;20192;-66
2023/01/09 08:16:30;;;;;;;19.97;13.33;;;4.70;99.90;;;4.42;81.28;99104.22;5137125;28;20253;-68
2023/01/09 08:18:58;;;;;;;18.03;13.67;;;4.80;99.90;;;4.41;81.17;99107.63;5131408;28;20217;-68
2023/01/09 08:21:27;;;;;;;19.03;13.57;;;4.70;99.90;;;4.44;81.42;99107.63;5133347;28;20228;-70
2023/01/09 08:23:56;;;;;;;20.50;13.30;;;4.70;99.90;;;4.45;80.69;99109.31;5134552;28;20553;-68
2023/01/09 08:26:25;;;;;;;19.07;14.07;;;4.70;99.90;;;4.46;81.06;99104.25;5132146;28;20199;-68
2023/01/09 08:28:53;;;;;;;20.03;13.93;;;4.80;99.90;;;4.48;81.25;99101.69;5133299;28;20199;-70
2023/01/09 08:31:22;;;;;;;19.77;14.13;;;4.80;99.90;;;4.50;81.27;99111.03;5134277;28;20225;-67
2023/01/09 08:33:50;;;;;;;20.33;14.60;;;4.80;99.90;;;4.58;81.18;99111.84;5128571;28;20195;-67
2023/01/09 08:36:18;;;;;;;21.30;13.13;;;4.90;99.90;;;4.65;80.43;99096.53;5131722;28;20269;-68
2023/01/09 08:38:47;;;;;;;17.23;13.27;;;4.90;99.90;;;4.70;80.74;99094.81;5136442;28;20195;-69
2023/01/09 08:47:07;;;;;;;20.00;14.43;;;5.10;99.90;;;4.93;79.73;99087.06;5134927;28;20180;-69
2023/01/09 08:49:37;;;;;;;18.60;13.80;;;5.20;99.90;;;5.01;79.11;99085.34;5136271;28;20226;-68
2023/01/09 08:52:07;;;;;;;19.47;13.30;;;5.30;99.90;;;5.07;79.09;99088.69;5135630;28;20180;-68
2023/01/09 08:54:37;;;;;;;19.67;13.00;;;5.40;99.90;;;5.15;78.88;99083.56;5134839;28;20188;-68
2023/01/09 08:57:07;;;;;;;17.60;12.80;;;5.50;99.90;;;5.21;78.44;99073.31;5132440;28;20234;-70
2023/01/09 08:59:36;;;;;;;18.37;12.93;;;5.50;99.90;;;5.23;78.05;99081.84;5133269;28;20215;-69
2023/01/09 09:02:04;;;;;;;18.30;12.77;;;5.50;99.90;;;5.27;78.34;99092.88;5133690;28;20214;-68
2023/01/09 09:04:33;;;;;;;18.47;12.27;;;5.60;99.90;;;5.27;77.49;99096.28;5135535;28;20612;-69
2023/01/09 09:07:01;;;;;;;17.60;12.73;;;5.60;99.90;;;5.28;77.36;99097.97;5134482;28;20194;-68
2023/01/09 09:09:29;;;;;;;18.00;12.97;;;5.60;99.90;;;5.26;77.79;99092.00;5131652;28;20208;-68
2023/01/09 09:11:58;;;;;;;18.70;12.73;;;5.50;99.90;;;5.23;77.72;99089.50;5132892;28;20195;-68
2023/01/09 09:17:14;;;;;;;19.30;12.43;;;5.50;99.90;;;5.14;77.21;99079.31;5135304;28;20196;-69
2023/01/09 09:19:42;;;;;;;16.93;13.17;;;5.40;99.90;;;5.08;77.91;99067.44;5114143;28;20215;-68
2023/01/09 09:22:11;;;;;;;18.40;13.00;;;5.40;99.90;;;5.04;77.72;99062.34;5131462;28;20184;-68
2023/01/09 09:24:39;;;;;;;17.83;13.13;;;5.30;99.90;;;5.06;78.10;99064.03;5135177;27;20203;-69
2023/01/09 09:27:07;;;;;;;19.93;13.30;;;5.30;99.90;;;5.09;78.25;99043.59;5115850;28;20184;-68
2023/01/09 09:29:37;;;;;;;17.63;13.13;;;5.40;99.90;;;5.13;78.30;99041.88;5132886;28;20196;-69
2023/01/09 09:32:06;;;;;;;19.00;12.90;;;5.50;99.90;;;5.19;78.24;99034.19;5132914;28;20188;-69
2023/01/09 09:34:34;;;;;;;16.77;12.37;;;5.50;99.90;;;5.26;78.11;99043.47;5134515;28;20192;-68
2023/01/09 09:37:02;;;;;;;18.00;13.23;;;5.60;99.90;;;5.33;77.94;99062.19;5136025;28;20272;-69
2023/01/09 09:39:31;;;;;;;15.00;11.97;;;5.60;99.90;;;5.36;77.67;99054.50;5133605;28;20270;-68
2023/01/09 09:45:50;;;;;;;19.73;13.37;;;5.70;99.90;;;5.40;77.14;99056.16;5135218;28;20214;-69
2023/01/09 09:48:35;;;;;;;15.93;11.93;;;5.70;99.90;;;5.38;77.26;99051.94;5132488;28;20184;-67
2023/01/09 09:51:41;;;;;;;17.63;12.87;;;5.70;99.90;;;5.36;77.46;99046.00;5135639;28;20180;-68
2023/01/09 09:54:14;;;;;;;19.40;12.93;;;5.70;99.90;;;5.30;77.06;99031.53;5132343;28;20199;-70
2023/01/09 09:56:50;;;;;;;18.67;12.37;;;5.70;99.90;;;5.28;77.79;99041.78;5131728;28;20254;-69
2023/01/09 09:59:22;;;;;;;20.23;13.77;;;5.60;99.90;;;5.27;77.75;99037.53;5133541;28;20187;-69
2023/01/09 10:02:00;;;;;;;17.90;13.17;;;5.60;99.90;;;5.26;77.95;99035.81;5134699;28;20186;-69
2023/01/09 10:04:33;;;;;;;19.50;12.80;;;5.60;99.90;;;5.24;77.79;99023.94;5124308;28;20189;-69
2023/01/09 10:07:08;;;;;;;18.27;12.33;;;5.60;99.90;;;5.19;78.11;99021.44;5133270;28;20211;-68
2023/01/09 10:09:48;;;;;;;17.10;12.67;;;5.60;99.90;;;5.22;78.29;99029.03;5132363;28;20179;-68
2023/01/09 10:12:29;;;;;;;22.53;12.87;;;5.50;99.90;;;5.21;78.37;99032.47;5134067;28;20191;-70
2023/01/09 10:15:00;;;;;;;17.23;12.50;;;5.50;99.90;;;5.21;78.23;99024.81;5133513;28;20209;-68
2023/01/09 10:17:56;;;;;;;23.53;13.80;;;5.50;99.90;;;5.22;78.28;99033.31;5134452;28;20222;-69
2023/01/09 10:20:57;;;;;;;18.97;12.87;;;5.60;99.90;;;5.19;78.56;99023.09;5133895;28;20261;-69
2023/01/09 10:23:59;;;;;;;15.77;12.43;;;5.50;99.90;;;5.21;78.44;99024.81;5131057;28;20183;-70
2023/01/09 10:26:36;;;;;;;19.23;12.87;;;5.50;99.90;;;5.25;78.65;99023.06;5133403;28;20175;-67
2023/01/09 10:29:34;;;;;;;17.73;12.53;;;5.50;99.90;;;5.24;78.55;99026.50;5133887;28;20184;-68
2023/01/09 10:32:30;;;;;;;18.47;13.00;;;5.60;99.90;;;5.23;78.37;99022.25;5128817;28;20188;-68
2023/01/09 10:35:20;;;;;;;21.40;12.43;;;5.50;99.90;;;5.23;78.92;99024.81;5132967;28;20177;-68
2023/01/09 10:37:52;;;;;;;19.23;13.07;;;5.50;99.90;;;5.24;78.97;99021.38;5128765;28;20277;-69
2023/01/09 10:40:25;;;;;;;16.83;12.73;;;5.50;99.90;;;5.26;78.85;99020.50;5134355;28;20200;-69
2023/01/09 10:43:00;;;;;;;17.57;12.90;;;5.60;99.90;;;5.28;78.79;99017.94;5136759;27;20176;-67
2023/01/09 10:45:34;;;;;;;22.07;13.03;;;5.60;99.90;;;5.29;79.03;99010.25;5137181;27;20183;-69
2023/01/09 10:48:16;;;;;;;15.73;12.57;;;5.60;99.90;;;5.35;79.03;99000.88;5134849;27;20208;-67
2023/01/09 10:50:51;;;;;;;20.37;13.00;;;5.60;99.90;;;5.37;79.35;98992.31;5127810;28;20215;-68
2023/01/09 10:53:22;;;;;;;16.80;12.27;;;5.70;99.90;;;5.39;79.60;98989.78;5134534;28;20226;-70